createdAt,value
2024-03-02T00:02:03.883Z,99577.66
2024-03-02T00:04:33.727Z,99564.00
2024-03-02T00:07:00.663Z,99535.13
2024-03-02T00:09:28.439Z,99532.16
2024-03-02T00:11:58.059Z,99547.13
2024-03-02T00:14:32.049Z,99522.91
2024-03-02T00:16:59.753Z,99474.38
2024-03-02T00:19:26.394Z,99493.16
2024-03-02T00:21:53.262Z,99481.09
2024-03-02T00:24:26.522Z,99507.59
2024-03-02T00:26:54.804Z,99446.41
2024-03-02T00:29:23.697Z,99488.06
2024-03-02T00:32:00.640Z,99488.56
2024-03-02T00:34:27.625Z,99498.59
2024-03-02T00:36:54.255Z,99517.56
2024-03-02T00:39:23.528Z,99508.91
2024-03-02T00:41:50.068Z,99506.50
2024-03-02T00:44:26.384Z,99473.75
2024-03-02T00:47:18.998Z,99450.94
2024-03-02T00:49:48.191Z,99475.78
2024-03-02T00:52:14.870Z,99489.63
2024-03-02T00:54:44.112Z,99488.09
2024-03-02T00:57:17.215Z,99451.63
2024-03-02T00:59:43.830Z,99455.00
2024-03-02T01:02:18.197Z,99484.28
2024-03-02T01:04:45.607Z,99498.22
2024-03-02T01:07:16.939Z,99471.19
2024-03-02T01:09:43.940Z,99487.13
2024-03-02T01:12:13.281Z,99506.50
2024-03-02T01:14:39.891Z,99519.34
2024-03-02T01:17:06.730Z,99509.19
2024-03-02T01:19:46.723Z,99522.31
2024-03-02T01:22:23.831Z,99518.16
2024-03-02T01:25:04.251Z,99531.53
2024-03-02T01:27:33.441Z,99557.50
2024-03-02T01:30:03.435Z,99579.88
2024-03-02T01:32:30.047Z,99573.56
2024-03-02T01:35:23.006Z,99607.25
2024-03-02T01:38:06.892Z,99579.09
2024-03-02T01:40:37.257Z,99609.81
2024-03-02T01:43:10.749Z,99640.13
2024-03-02T01:45:39.713Z,99645.38
2024-03-02T01:48:09.514Z,99707.72
2024-03-02T01:50:42.932Z,99700.97
2024-03-02T01:53:12.702Z,99702.00
2024-03-02T01:55:40.900Z,99739.53
2024-03-02T01:58:07.493Z,99736.91
2024-03-02T02:00:35.478Z,99775.31
2024-03-02T02:03:06.637Z,99782.38
2024-03-02T02:05:33.874Z,99832.09
2024-03-02T02:08:09.952Z,99863.53
2024-03-02T02:10:37.618Z,99874.84
2024-03-02T02:13:04.499Z,99828.81
2024-03-02T02:15:31.847Z,99840.66
2024-03-02T02:18:02.250Z,99843.03
2024-03-02T02:20:34.032Z,99828.31
2024-03-02T02:23:04.934Z,99830.38
2024-03-02T02:25:36.586Z,99813.59
2024-03-02T02:28:04.519Z,99820.66
2024-03-02T02:30:33.548Z,99802.53
2024-03-02T02:33:09.887Z,99804.38
2024-03-02T02:35:39.409Z,99763.13
2024-03-02T02:38:09.133Z,99766.78
2024-03-02T02:40:35.742Z,99744.38
2024-03-02T02:43:08.693Z,99731.53
2024-03-02T02:45:38.897Z,99723.84
2024-03-02T02:48:14.487Z,99705.44
2024-03-02T02:51:01.222Z,99687.56
2024-03-02T02:53:27.763Z,99697.25
2024-03-02T02:55:54.489Z,99694.84
2024-03-02T02:58:21.094Z,99679.16
2024-03-02T03:00:47.915Z,99652.03
2024-03-02T03:03:16.041Z,99647.25
2024-03-02T03:05:57.064Z,99644.59
2024-03-02T03:08:32.786Z,99623.66
2024-03-02T03:10:59.485Z,99625.50
2024-03-02T03:13:31.044Z,99657.81
2024-03-02T03:16:02.075Z,99635.16
2024-03-02T03:18:29.897Z,99650.94
2024-03-02T03:20:56.475Z,99637.25
2024-03-02T03:23:26.649Z,99608.13
2024-03-02T03:25:55.784Z,99625.16
2024-03-02T03:28:25.887Z,99626.28
2024-03-02T03:31:00.645Z,99662.03
2024-03-02T03:33:27.543Z,99637.06
2024-03-02T03:35:55.941Z,99618.44
2024-03-02T03:38:22.541Z,99623.94
2024-03-02T03:40:52.026Z,99640.94
2024-03-02T03:43:18.940Z,99659.94
2024-03-02T03:45:48.310Z,99653.41
2024-03-02T03:48:15.990Z,99655.81
2024-03-02T03:50:45.618Z,99630.88
2024-03-02T03:53:13.770Z,99642.66
2024-03-02T03:55:57.297Z,99634.75
2024-03-02T03:58:28.844Z,99631.91
2024-03-02T04:00:58.809Z,99636.13
2024-03-02T04:03:28.674Z,99640.53
2024-03-02T04:05:55.522Z,99634.06
2024-03-02T04:08:22.006Z,99651.16
2024-03-02T04:10:48.775Z,99644.06
2024-03-02T04:13:25.731Z,99658.47
2024-03-02T04:15:53.385Z,99649.84
2024-03-02T04:18:21.233Z,99641.41
2024-03-02T04:20:48.874Z,99658.25
2024-03-02T04:23:20.307Z,99615.41
2024-03-02T04:25:48.565Z,99615.97
2024-03-02T04:28:16.760Z,99621.25
2024-03-02T04:30:46.110Z,99597.06
2024-03-02T04:33:32.788Z,99625.41
2024-03-02T04:36:17.174Z,99628.59
2024-03-02T04:38:51.402Z,99585.78
2024-03-02T04:41:23.801Z,99566.59
2024-03-02T04:43:51.167Z,99544.28
2024-03-02T04:46:17.513Z,99547.69
2024-03-02T04:48:48.246Z,99529.28
2024-03-02T04:51:15.385Z,99528.19
2024-03-02T04:53:43.256Z,99512.19
2024-03-02T04:56:18.867Z,99497.50
2024-03-02T04:58:52.866Z,99456.47
2024-03-02T05:01:33.339Z,99478.53
2024-03-02T05:04:09.157Z,99436.78
2024-03-02T05:06:38.461Z,99436.44
2024-03-02T05:09:05.236Z,99444.56
2024-03-02T05:11:33.596Z,99432.84
2024-03-02T05:14:00.105Z,99447.72
2024-03-02T05:16:47.901Z,99409.84
2024-03-02T05:19:26.705Z,99419.63
2024-03-02T05:22:00.665Z,99423.91
2024-03-02T05:24:29.455Z,99404.94
2024-03-02T05:26:57.314Z,99408.63
2024-03-02T05:29:49.007Z,99385.56
2024-03-02T05:32:14.033Z,99371.88
2024-03-02T05:34:45.404Z,99369.81
2024-03-02T05:37:14.846Z,99362.69
2024-03-02T05:39:41.501Z,99329.91
2024-03-02T05:42:09.039Z,99312.75
2024-03-02T05:44:39.227Z,99303.63
2024-03-02T05:47:23.423Z,99304.91
2024-03-02T05:49:54.287Z,99278.50
2024-03-02T05:52:42.400Z,99274.78
2024-03-02T05:55:09.539Z,99259.19
2024-03-02T05:57:43.074Z,99273.13
2024-03-02T06:03:22.250Z,99250.41
2024-03-02T06:09:50.751Z,99263.28
2024-03-02T06:12:17.758Z,99262.00
2024-03-02T06:20:44.057Z,99250.34
2024-03-02T06:23:14.154Z,99225.38
2024-03-02T06:31:32.027Z,99192.00
2024-03-02T06:34:34.348Z,99161.09
2024-03-02T06:37:40.683Z,99137.00
2024-03-02T06:43:24.915Z,99146.09
2024-03-02T06:45:54.196Z,99136.69
2024-03-02T06:48:23.892Z,99099.22
2024-03-02T06:51:16.508Z,99091.03
2024-03-02T06:53:43.836Z,99082.13
2024-03-02T06:56:13.606Z,99082.06
2024-03-02T06:59:05.019Z,99076.38
2024-03-02T07:02:00.746Z,99078.75
2024-03-02T07:04:48.405Z,99057.09
2024-03-02T07:07:14.882Z,99066.25
2024-03-02T07:09:45.799Z,99090.66
2024-03-02T07:15:19.221Z,99117.34
2024-03-02T07:17:57.366Z,99106.91
2024-03-02T07:20:34.687Z,99113.84
2024-03-02T07:28:52.562Z,99170.41
2024-03-02T07:31:39.671Z,99197.91
2024-03-02T07:34:22.483Z,99189.84
2024-03-02T07:36:49.003Z,99189.28
2024-03-02T07:39:26.192Z,99178.88
2024-03-02T07:42:01.378Z,99214.00
2024-03-02T07:45:09.619Z,99236.31
2024-03-02T07:47:41.158Z,99268.25
2024-03-02T07:50:16.125Z,99253.63
2024-03-02T07:52:44.769Z,99293.66
2024-03-02T07:55:28.809Z,99257.00
2024-03-02T07:58:04.567Z,99297.63
2024-03-02T08:00:35.932Z,99322.97
2024-03-02T08:03:05.284Z,99296.44
2024-03-02T08:05:34.317Z,99330.88
2024-03-02T08:13:31.866Z,99358.97
2024-03-02T08:16:31.852Z,99397.78
2024-03-02T08:22:31.641Z,99413.88
2024-03-02T08:25:08.280Z,99414.72
2024-03-02T08:27:55.611Z,99458.28
2024-03-02T08:30:31.269Z,99416.56
2024-03-02T08:36:19.759Z,99453.22
2024-03-02T08:38:53.617Z,99475.22
2024-03-02T08:41:30.317Z,99462.38
2024-03-02T08:43:59.171Z,99475.50
2024-03-02T08:46:27.133Z,99515.97
2024-03-02T08:49:00.181Z,99501.47
2024-03-02T08:51:27.071Z,99514.34
2024-03-02T08:53:55.594Z,99564.22
2024-03-02T08:56:22.293Z,99566.91
2024-03-02T08:58:49.002Z,99630.25
2024-03-02T09:01:25.768Z,99651.53
2024-03-02T09:04:18.271Z,99672.38
2024-03-02T09:06:52.368Z,99677.91
2024-03-02T09:09:36.648Z,99721.56
2024-03-02T09:12:06.042Z,99753.69
2024-03-02T09:14:50.772Z,99750.81
2024-03-02T09:17:19.530Z,99766.31
2024-03-02T09:20:02.497Z,99811.31
2024-03-02T09:22:31.859Z,99826.47
2024-03-02T09:25:00.878Z,99836.28
2024-03-02T09:27:31.873Z,99846.47
2024-03-02T09:30:11.206Z,99859.91
2024-03-02T09:32:50.886Z,99829.53
2024-03-02T09:35:28.749Z,99837.16
2024-03-02T09:37:59.177Z,99843.38
2024-03-02T09:40:27.080Z,99823.09
2024-03-02T09:42:56.233Z,99800.09
2024-03-02T09:45:31.729Z,99793.28
2024-03-02T09:47:58.359Z,99813.59
2024-03-02T09:50:31.431Z,99766.25
2024-03-02T09:52:58.118Z,99778.81
2024-03-02T09:55:30.083Z,99783.16
2024-03-02T09:57:56.830Z,99798.31
2024-03-02T10:00:23.513Z,99782.81
2024-03-02T10:02:54.980Z,99779.75
2024-03-02T10:05:28.564Z,99817.63
2024-03-02T10:13:31.225Z,99794.38
2024-03-02T10:16:13.815Z,99808.28
2024-03-02T10:18:42.936Z,99784.59
2024-03-02T10:21:23.427Z,99799.97
2024-03-02T10:23:50.001Z,99858.28
2024-03-02T10:26:38.375Z,99926.09
2024-03-02T10:29:18.103Z,99947.72
2024-03-02T10:35:05.585Z,100289.94
2024-03-02T10:37:59.416Z,100288.00
2024-03-02T10:40:47.149Z,100314.19
2024-03-02T10:43:16.301Z,100352.88
2024-03-02T10:46:11.150Z,100295.25
2024-03-02T10:48:48.563Z,100307.63
2024-03-02T11:01:40.893Z,100444.50
2024-03-02T11:04:23.041Z,100484.59
2024-03-02T11:07:09.658Z,100491.56
2024-03-02T11:10:00.535Z,100348.31
2024-03-02T11:12:42.812Z,100446.47
2024-03-02T11:15:24.605Z,100503.72
2024-03-02T11:17:54.283Z,100449.50
2024-03-02T11:24:31.951Z,100448.63
2024-03-02T11:27:46.482Z,100572.00
2024-03-02T11:30:35.289Z,100613.22
2024-03-02T11:33:13.701Z,100546.41
2024-03-02T11:35:48.389Z,100590.78
2024-03-02T11:38:27.038Z,100442.91
2024-03-02T11:40:53.712Z,100570.34
2024-03-02T11:43:21.689Z,100406.28
2024-03-02T11:46:01.613Z,100464.31
2024-03-02T11:48:30.666Z,100631.63
2024-03-02T11:51:03.021Z,100612.22
2024-03-02T11:53:35.488Z,100560.66
2024-03-02T11:56:10.695Z,100450.09
2024-03-02T11:58:41.131Z,100588.22
2024-03-02T12:01:28.313Z,100530.25
2024-03-02T12:04:00.024Z,100509.28
2024-03-02T12:06:27.459Z,100399.56
2024-03-02T12:08:56.962Z,100518.94
2024-03-02T12:11:48.152Z,100482.78
2024-03-02T12:14:21.094Z,100610.63
2024-03-02T12:17:02.160Z,100508.78
2024-03-02T12:19:36.248Z,100546.69
2024-03-02T12:22:02.890Z,100496.00
2024-03-02T12:24:44.736Z,100585.75
2024-03-02T12:28:18.587Z,100553.19
2024-03-02T12:30:31.491Z,100554.50
2024-03-02T12:33:01.441Z,100534.31
2024-03-02T12:35:27.862Z,100424.28
2024-03-02T12:38:09.258Z,100439.00
2024-03-02T12:40:42.849Z,100482.16
2024-03-02T12:43:36.941Z,100473.31
2024-03-02T12:46:31.805Z,100514.09
2024-03-02T12:49:27.415Z,100506.78
2024-03-02T12:51:57.033Z,100479.91
2024-03-02T12:54:28.085Z,100482.75
2024-03-02T13:00:27.396Z,100581.22
2024-03-02T13:03:31.678Z,100625.56
2024-03-02T13:05:59.564Z,100502.69
2024-03-02T13:08:26.085Z,100542.59
2024-03-02T13:12:07.899Z,100519.84
2024-03-02T13:14:43.499Z,100481.19
2024-03-02T13:17:16.851Z,100410.69
2024-03-02T13:19:59.703Z,100488.41
2024-03-02T13:22:50.264Z,100509.59
2024-03-02T13:25:19.863Z,100499.31
2024-03-02T13:30:42.598Z,100472.31
2024-03-02T13:33:13.938Z,100452.09
2024-03-02T13:35:45.945Z,100402.72
2024-03-02T13:49:48.909Z,100420.59
2024-03-02T13:52:20.584Z,100414.91
2024-03-02T13:55:13.968Z,100380.88
2024-03-02T13:58:00.953Z,100402.38
2024-03-02T14:00:42.719Z,100447.31
2024-03-02T14:03:13.157Z,100421.75
2024-03-02T14:05:40.358Z,100414.72
2024-03-02T14:08:09.460Z,100396.28
2024-03-02T14:10:48.587Z,100440.06
2024-03-02T14:13:27.098Z,100386.19
2024-03-02T14:16:00.787Z,100439.41
2024-03-02T14:19:21.750Z,100439.72
2024-03-02T14:21:32.482Z,100456.19
2024-03-02T14:27:24.420Z,100364.94
2024-03-02T14:30:16.066Z,100428.94
2024-03-02T14:35:37.895Z,100376.22
2024-03-02T14:40:54.577Z,100394.81
2024-03-02T14:44:13.608Z,100384.41
2024-03-02T14:46:53.762Z,100420.31
2024-03-02T14:49:35.981Z,100428.69
2024-03-02T14:52:16.313Z,100391.97
2024-03-02T14:54:45.464Z,100417.25
2024-03-02T14:57:17.296Z,100412.31
2024-03-02T15:02:41.369Z,100381.06
2024-03-02T15:05:18.187Z,100348.81
2024-03-02T15:08:14.998Z,100365.31
2024-03-02T15:11:20.150Z,100343.91
2024-03-02T15:16:42.622Z,100326.28
2024-03-02T15:19:11.344Z,100333.00
2024-03-02T15:21:40.791Z,100332.03
2024-03-02T15:24:10.298Z,100300.94
2024-03-02T15:26:38.609Z,100353.22
2024-03-02T15:29:11.638Z,100329.66
2024-03-02T15:32:00.100Z,100298.66
2024-03-02T15:37:28.861Z,100342.31
2024-03-02T15:40:23.189Z,100320.84
2024-03-02T15:45:01.770Z,100358.84
2024-03-02T15:46:28.744Z,100352.34
2024-03-02T15:52:51.992Z,100341.16
2024-03-02T15:58:39.025Z,100344.78
2024-03-02T16:04:38.542Z,100351.78
2024-03-02T16:25:43.974Z,100341.31
2024-03-02T16:28:40.245Z,100388.47
2024-03-02T16:31:14.741Z,100345.59
2024-03-02T16:33:47.907Z,100364.06
2024-03-02T16:36:17.380Z,100370.53
2024-03-02T16:38:44.076Z,100348.59
2024-03-02T16:41:14.900Z,100376.94
2024-03-02T16:43:41.419Z,100359.25
2024-03-02T16:46:10.674Z,100365.88
2024-03-02T16:48:37.259Z,100365.19
2024-03-02T16:51:06.642Z,100348.28
2024-03-02T16:53:34.564Z,100360.97
2024-03-02T16:56:01.579Z,100350.59
2024-03-02T16:58:27.991Z,100339.06
2024-03-02T17:00:54.521Z,100328.06
2024-03-02T17:03:21.110Z,100339.97
2024-03-02T17:05:47.573Z,100312.06
2024-03-02T17:08:14.093Z,100335.31
2024-03-02T17:10:40.675Z,100342.00
2024-03-02T17:13:07.234Z,100327.47
2024-03-02T17:15:33.667Z,100316.94
2024-03-02T17:18:00.235Z,100286.66
2024-03-02T17:20:26.994Z,100290.88
2024-03-02T17:22:53.418Z,100274.31
2024-03-02T17:25:22.190Z,100268.53
2024-03-02T17:27:48.995Z,100291.81
2024-03-02T17:30:15.746Z,100264.72
2024-03-02T17:32:42.216Z,100266.81
2024-03-02T17:35:08.877Z,100205.03
2024-03-02T17:37:35.342Z,100197.53
2024-03-02T17:40:02.044Z,100177.69
2024-03-02T17:42:28.513Z,100161.34
2024-03-02T17:44:55.198Z,100125.72
2024-03-02T17:47:21.599Z,100060.19
2024-03-02T17:49:55.888Z,100008.88
2024-03-02T17:52:22.529Z,99935.81
2024-03-02T17:54:49.221Z,99949.44
2024-03-02T17:57:15.644Z,99905.66
2024-03-02T17:59:44.795Z,99870.47
2024-03-02T18:02:14.319Z,99860.41
2024-03-02T18:04:48.075Z,99763.59
2024-03-02T18:07:14.884Z,99663.56
2024-03-02T18:09:41.530Z,99625.97
2024-03-02T18:12:08.494Z,99447.13
2024-03-02T18:14:37.122Z,99334.31
2024-03-02T18:17:04.914Z,99279.75
2024-03-02T18:19:31.432Z,99190.34
2024-03-02T18:21:58.597Z,99153.56
2024-03-02T18:24:25.029Z,99074.34
2024-03-02T18:26:53.269Z,99002.94
2024-03-02T18:29:19.641Z,98974.78
2024-03-02T18:31:46.149Z,98977.75
2024-03-02T18:34:13.833Z,98936.06
2024-03-02T18:36:40.409Z,98999.38
2024-03-02T18:39:06.863Z,99006.44
2024-03-02T18:41:33.514Z,99049.47
2024-03-02T18:44:00.050Z,99089.47
2024-03-02T18:46:26.513Z,99100.31
2024-03-02T18:48:53.083Z,99118.72
2024-03-02T18:51:21.915Z,99135.22
2024-03-02T18:53:51.494Z,99181.50
2024-03-02T18:56:18.360Z,99202.06
2024-03-02T18:58:44.883Z,99246.19
2024-03-02T19:01:11.727Z,99272.34
2024-03-02T19:03:38.198Z,99247.38
2024-03-02T19:06:04.902Z,99252.06
2024-03-02T19:08:31.275Z,99269.28
2024-03-02T19:10:57.683Z,99257.84
2024-03-02T19:13:24.081Z,99256.66
2024-03-02T19:15:50.746Z,99273.59
2024-03-02T19:18:17.459Z,99326.75
2024-03-02T19:20:44.567Z,99378.25
2024-03-02T19:23:18.909Z,99429.63
2024-03-02T19:25:51.862Z,99525.91
2024-03-02T19:28:18.434Z,99585.75
2024-03-02T19:30:46.768Z,99681.69
2024-03-02T19:33:14.019Z,99740.28
2024-03-02T19:35:40.442Z,99776.28
2024-03-02T19:38:07.118Z,99773.41
2024-03-02T19:40:36.809Z,99775.47
2024-03-02T19:43:03.308Z,99776.44
2024-03-02T19:45:29.829Z,99762.50
2024-03-02T19:47:56.221Z,99766.72
2024-03-02T19:50:22.881Z,99759.09
2024-03-02T19:52:53.108Z,99774.59
2024-03-02T19:55:19.795Z,99769.47
2024-03-02T19:57:46.397Z,99766.25
2024-03-02T20:00:16.501Z,99774.47
2024-03-02T20:02:46.086Z,99744.84
2024-03-02T20:05:12.549Z,99773.41
2024-03-02T20:07:40.807Z,99766.53
2024-03-02T20:10:08.424Z,99732.88
2024-03-02T20:12:35.006Z,99757.00
2024-03-02T20:15:02.242Z,99757.88
2024-03-02T20:17:28.738Z,99757.09
2024-03-02T20:19:55.531Z,99753.06
2024-03-02T20:22:22.477Z,99750.06
2024-03-02T20:24:48.979Z,99763.03
2024-03-02T20:27:18.968Z,99773.91
2024-03-02T20:29:45.796Z,99761.00
2024-03-02T20:32:16.062Z,99774.91
2024-03-02T20:34:42.487Z,99749.63
2024-03-02T20:37:09.051Z,99766.91
2024-03-02T20:39:35.568Z,99802.69
2024-03-02T20:42:02.019Z,99786.91
2024-03-02T20:44:28.464Z,99798.94
2024-03-02T20:46:55.045Z,99791.00
2024-03-02T20:49:21.832Z,99802.50
2024-03-02T20:51:48.459Z,99794.38
2024-03-02T20:54:17.820Z,99807.81
2024-03-02T20:56:44.601Z,99797.81
2024-03-02T20:59:11.690Z,99761.53
2024-03-02T21:01:38.876Z,99789.56
2024-03-02T21:04:05.633Z,99776.56
2024-03-02T21:06:32.175Z,99767.97
2024-03-02T21:08:58.649Z,99766.28
2024-03-02T21:11:25.150Z,99756.03
2024-03-02T21:13:51.537Z,99741.03
2024-03-02T21:16:18.146Z,99741.47
2024-03-02T21:18:44.658Z,99756.19
2024-03-02T21:21:11.322Z,99746.25
2024-03-02T21:23:37.899Z,99752.31
2024-03-02T21:26:04.619Z,99750.03
2024-03-02T21:28:31.306Z,99736.03
2024-03-02T21:30:57.812Z,99747.91
2024-03-02T21:33:27.613Z,99771.38
2024-03-02T21:35:54.156Z,99764.31
2024-03-02T21:38:20.643Z,99776.19
2024-03-02T21:40:47.161Z,99768.78
2024-03-02T21:43:13.909Z,99782.53
2024-03-02T21:45:40.392Z,99777.53
2024-03-02T21:48:07.163Z,99792.66
2024-03-02T21:50:33.679Z,99796.41
2024-03-02T21:53:00.708Z,99784.44
2024-03-02T21:55:27.051Z,99798.69
2024-03-02T21:57:56.284Z,99801.13
2024-03-02T22:00:22.851Z,99774.31
2024-03-02T22:02:49.390Z,99798.25
2024-03-02T22:05:15.843Z,99772.69
2024-03-02T22:07:44.710Z,99810.56
2024-03-02T22:10:11.243Z,99813.28
2024-03-02T22:12:38.284Z,99805.19
2024-03-02T22:15:08.210Z,99810.19
2024-03-02T22:17:34.944Z,99810.63
2024-03-02T22:20:01.586Z,99804.31
2024-03-02T22:22:30.702Z,99792.09
2024-03-02T22:24:57.243Z,99788.16
2024-03-02T22:27:26.822Z,99792.66
2024-03-02T22:29:53.356Z,99790.53
2024-03-02T22:32:20.971Z,99775.06
2024-03-02T22:34:50.208Z,99781.63
2024-03-02T22:37:16.657Z,99777.13
2024-03-02T22:39:43.249Z,99763.56
2024-03-02T22:42:09.833Z,99753.38
2024-03-02T22:44:36.332Z,99792.38
2024-03-02T22:47:03.004Z,99788.97
2024-03-02T22:49:30.022Z,99792.00
2024-03-02T22:51:58.109Z,99808.28
2024-03-02T22:54:24.627Z,99803.03
2024-03-02T22:56:51.189Z,99791.22
2024-03-02T22:59:17.781Z,99808.06
2024-03-02T23:01:44.436Z,99802.00
2024-03-02T23:04:12.284Z,99815.63
2024-03-02T23:06:38.825Z,99801.91
2024-03-02T23:09:05.948Z,99801.09
2024-03-02T23:11:32.489Z,99795.66
2024-03-02T23:13:58.909Z,99789.09
2024-03-02T23:16:28.280Z,99786.25
2024-03-02T23:18:55.527Z,99779.09
2024-03-02T23:21:22.163Z,99787.81
2024-03-02T23:23:49.768Z,99803.06
2024-03-02T23:26:16.274Z,99808.28
2024-03-02T23:28:42.748Z,99803.81
2024-03-02T23:31:10.742Z,99760.41
2024-03-02T23:33:38.327Z,99788.78
2024-03-02T23:36:05.164Z,99793.22
2024-03-02T23:38:31.843Z,99792.38
2024-03-02T23:40:58.353Z,99755.53
2024-03-02T23:43:24.965Z,99754.47
2024-03-02T23:45:52.554Z,99762.88
2024-03-02T23:48:21.253Z,99777.06
2024-03-02T23:50:47.797Z,99772.00
2024-03-02T23:53:14.363Z,99752.66
2024-03-02T23:55:51.633Z,99727.66
2024-03-02T23:58:20.154Z,99776.03
